Wetterdaten: Woche 05.01.09 - 11.01.09 (KW2)
Datum Zeit Temperatur Luftfeuchte Luftdruck Niederschlag Wind Richtung Sonnenschein Solar Taupunkt Windchill Windben
05.01.2009 00:00 -5.1 C 90 % 1019.9 hPa 0.0 l/m 2.7 km/h (1 Bft) SW 0.00 h 0 W/m -6.5 C -5.7 C 5.6 km/h (1 Bft)
05.01.2009 01:00 -4.9 C 90 % 1019.2 hPa 0.0 l/m 3.6 km/h (1 Bft) S-SW 0.00 h 0 W/m -6.3 C -5.5 C 7.2 km/h (2 Bft)
05.01.2009 02:00 -4.7 C 89 % 1018.8 hPa 0.0 l/m 2.8 km/h (1 Bft) S-SW 0.00 h 0 W/m -6.3 C -5.1 C 5.9 km/h (2 Bft)
05.01.2009 03:00 -4.7 C 89 % 1018.3 hPa 0.0 l/m 3.6 km/h (1 Bft) S 0.00 h 0 W/m -6.2 C -5.6 C 7.3 km/h (2 Bft)
05.01.2009 04:00 -4.9 C 88 % 1018.3 hPa 0.0 l/m 3.3 km/h (1 Bft) S-SW 0.00 h 0 W/m -6.6 C -5.5 C 6.4 km/h (2 Bft)
05.01.2009 05:00 -5.0 C 88 % 1018.1 hPa 0.0 l/m 2.9 km/h (1 Bft) S-SO 0.00 h 0 W/m -6.7 C -5.3 C 5.8 km/h (2 Bft)
05.01.2009 06:00 -5.0 C 88 % 1018.0 hPa 0.0 l/m 3.7 km/h (1 Bft) SW 0.00 h 0 W/m -6.8 C -5.9 C 6.8 km/h (2 Bft)
05.01.2009 07:00 -5.0 C 87 % 1018.0 hPa 0.0 l/m 0.2 km/h (0 Bft) SO 0.00 h 0 W/m -6.8 C -5.0 C 1.1 km/h (1 Bft)
05.01.2009 08:00 -4.9 C 86 % 1018.2 hPa 0.0 l/m 1.0 km/h (0 Bft) SO 0.00 h 12 W/m -6.8 C -4.9 C 2.1 km/h (1 Bft)
05.01.2009 09:00 -4.5 C 85 % 1018.4 hPa 0.0 l/m 0.6 km/h (0 Bft) S-SO 0.00 h 45 W/m -6.7 C -4.5 C 2.3 km/h (1 Bft)
05.01.2009 10:00 -4.0 C 83 % 1018.5 hPa 0.0 l/m 0.5 km/h (0 Bft) S 0.00 h 97 W/m -6.6 C -4.0 C 1.7 km/h (1 Bft)
05.01.2009 11:00 -3.6 C 81 % 1018.1 hPa 0.0 l/m 3.1 km/h (1 Bft) SW 0.68 h 183 W/m -6.5 C -4.2 C 5.2 km/h (1 Bft)
05.01.2009 12:00 -3.3 C 79 % 1017.7 hPa 0.0 l/m 2.0 km/h (1 Bft) S-SO 0.13 h 110 W/m -6.4 C -3.5 C 4.4 km/h (1 Bft)
05.01.2009 13:00 -3.1 C 79 % 1017.2 hPa 0.0 l/m 0.9 km/h (0 Bft) S 0.37 h 141 W/m -6.2 C -3.1 C 2.8 km/h (1 Bft)
05.01.2009 14:00 -3.1 C 78 % 1017.1 hPa 0.0 l/m 2.0 km/h (1 Bft) SO 0.30 h 127 W/m -6.4 C -3.2 C 3.7 km/h (1 Bft)
05.01.2009 15:00 -2.9 C 77 % 1017.1 hPa 0.0 l/m 1.0 km/h (0 Bft) SO 0.17 h 66 W/m -6.2 C -2.9 C 2.2 km/h (1 Bft)
05.01.2009 16:00 -2.9 C 77 % 1017.3 hPa 0.0 l/m 0.3 km/h (0 Bft) SO 0.00 h 16 W/m -6.4 C -2.9 C 1.1 km/h (1 Bft)
05.01.2009 17:00 -3.4 C 79 % 1017.6 hPa 0.0 l/m 0.8 km/h (0 Bft) SO 0.00 h 0 W/m -6.4 C -3.4 C 2.0 km/h (1 Bft)
05.01.2009 18:00 -3.6 C 81 % 1017.8 hPa 0.0 l/m 1.8 km/h (1 Bft) SO 0.00 h 0 W/m -6.3 C -3.6 C 3.3 km/h (1 Bft)
05.01.2009 19:00 -3.8 C 85 % 1018.0 hPa 0.0 l/m 0.6 km/h (0 Bft) SO 0.00 h 0 W/m -6.0 C -3.8 C 1.6 km/h (1 Bft)
05.01.2009 20:00 -4.0 C 87 % 1018.2 hPa 0.0 l/m 0.3 km/h (0 Bft) SO 0.00 h 0 W/m -5.9 C -4.0 C 0.7 km/h (0 Bft)
05.01.2009 21:00 -3.9 C 87 % 1018.3 hPa 0.0 l/m 0.0 km/h (0 Bft) SO 0.00 h 0 W/m -5.7 C -3.9 C 0.1 km/h (0 Bft)
05.01.2009 22:00 -4.1 C 89 % 1018.2 hPa 0.0 l/m 0.0 km/h (0 Bft) N 0.00 h 0 W/m -5.7 C -4.1 C 0.0 km/h (0 Bft)
05.01.2009 23:00 -4.3 C 89 % 1018.2 hPa 0.0 l/m 0.0 km/h (0 Bft) N 0.00 h 0 W/m -5.8 C -4.3 C 0.3 km/h (0 Bft)
06.01.2009 00:00 -4.6 C 89 % 1017.9 hPa 0.0 l/m 0.1 km/h (0 Bft) SO 0.00 h 0 W/m -6.1 C -4.6 C 0.4 km/h (0 Bft)
06.01.2009 01:00 -4.7 C 89 % 1017.4 hPa 0.0 l/m 0.7 km/h (0 Bft) NO 0.00 h 0 W/m -6.2 C -4.7 C 2.1 km/h (1 Bft)
06.01.2009 02:00 -4.7 C 89 % 1017.6 hPa 0.0 l/m 0.2 km/h (0 Bft) NO 0.00 h 0 W/m -6.2 C -4.7 C 1.1 km/h (1 Bft)
06.01.2009 03:00 -4.8 C 90 % 1017.3 hPa 0.0 l/m 0.1 km/h (0 Bft) NO 0.00 h 0 W/m -6.2 C -4.8 C 0.4 km/h (0 Bft)
06.01.2009 04:00 -4.6 C 91 % 1017.1 hPa 0.0 l/m 0.1 km/h (0 Bft) NO 0.00 h 0 W/m -5.9 C -4.6 C 0.4 km/h (0 Bft)
06.01.2009 05:00 -4.4 C 91 % 1017.1 hPa 0.0 l/m 0.0 km/h (0 Bft) N 0.00 h 0 W/m -5.7 C -4.4 C 0.1 km/h (0 Bft)
06.01.2009 06:00 -4.3 C 91 % 1017.2 hPa 0.0 l/m 0.0 km/h (0 Bft) NO 0.00 h 0 W/m -5.4 C -4.3 C 0.2 km/h (0 Bft)
06.01.2009 07:00 -4.0 C 91 % 1017.1 hPa 0.0 l/m 0.8 km/h (0 Bft) N-NO 0.00 h 0 W/m -5.2 C -4.0 C 2.6 km/h (1 Bft)
06.01.2009 08:00 -3.6 C 87 % 1017.2 hPa 0.0 l/m 1.9 km/h (1 Bft) N-NO 0.00 h 8 W/m -5.4 C -3.8 C 4.3 km/h (1 Bft)
06.01.2009 09:00 -3.2 C 83 % 1017.2 hPa 0.0 l/m 1.5 km/h (1 Bft) N-NO 0.00 h 11 W/m -5.7 C -3.4 C 3.9 km/h (1 Bft)
06.01.2009 10:00 -3.0 C 83 % 1017.3 hPa 0.2 l/m 1.3 km/h (1 Bft) N 0.00 h 34 W/m -5.4 C -3.0 C 3.1 km/h (1 Bft)
06.01.2009 11:00 -2.6 C 82 % 1017.1 hPa 0.0 l/m 1.2 km/h (1 Bft) N 0.00 h 46 W/m -5.3 C -2.6 C 3.6 km/h (1 Bft)
06.01.2009 12:00 -2.3 C 79 % 1016.5 hPa 0.0 l/m 2.6 km/h (1 Bft) N 0.00 h 42 W/m -5.4 C -2.7 C 5.7 km/h (1 Bft)
06.01.2009 13:00 -2.2 C 77 % 1016.1 hPa 0.0 l/m 1.3 km/h (1 Bft) N 0.00 h 31 W/m -5.6 C -2.2 C 3.3 km/h (1 Bft)
06.01.2009 14:00 -2.0 C 76 % 1016.1 hPa 0.0 l/m 3.7 km/h (1 Bft) N 0.00 h 35 W/m -5.6 C -2.9 C 6.6 km/h (2 Bft)
06.01.2009 15:00 -2.0 C 75 % 1016.5 hPa 0.0 l/m 2.2 km/h (1 Bft) N-NW 0.00 h 14 W/m -5.8 C -2.4 C 4.9 km/h (1 Bft)
06.01.2009 16:00 -2.2 C 76 % 1017.1 hPa 0.0 l/m 1.2 km/h (1 Bft) N 0.00 h 0 W/m -5.9 C -2.3 C 3.5 km/h (1 Bft)
06.01.2009 17:00 -2.3 C 77 % 1017.4 hPa 0.0 l/m 2.9 km/h (1 Bft) N-NO 0.00 h 0 W/m -5.8 C -2.9 C 6.5 km/h (2 Bft)
06.01.2009 18:00 -2.4 C 78 % 1017.6 hPa 0.0 l/m 2.2 km/h (1 Bft) N 0.00 h 0 W/m -5.8 C -2.7 C 5.2 km/h (1 Bft)
06.01.2009 19:00 -2.6 C 77 % 1017.6 hPa 0.0 l/m 1.6 km/h (1 Bft) O-SO 0.00 h 0 W/m -6.0 C -2.7 C 4.1 km/h (1 Bft)
06.01.2009 20:00 -2.8 C 78 % 1017.9 hPa 0.0 l/m 2.7 km/h (1 Bft) N-NO 0.00 h 0 W/m -6.1 C -3.2 C 5.9 km/h (2 Bft)
06.01.2009 21:00 -2.9 C 79 % 1018.1 hPa 0.0 l/m 3.1 km/h (1 Bft) NO 0.00 h 0 W/m -6.1 C -3.4 C 6.8 km/h (2 Bft)
06.01.2009 22:00 -3.0 C 80 % 1018.0 hPa 0.0 l/m 3.7 km/h (1 Bft) N-NO 0.00 h 0 W/m -6.0 C -3.8 C 7.3 km/h (2 Bft)
06.01.2009 23:00 -3.1 C 80 % 1018.1 hPa 0.0 l/m 3.0 km/h (1 Bft) N-NO 0.00 h 0 W/m -6.0 C -3.7 C 6.6 km/h (2 Bft)
07.01.2009 00:00 -3.1 C 80 % 1018.2 hPa 0.0 l/m 1.8 km/h (1 Bft) NO 0.00 h 0 W/m -6.1 C -3.2 C 4.1 km/h (1 Bft)
07.01.2009 01:00 -3.2 C 80 % 1018.1 hPa 0.0 l/m 1.5 km/h (1 Bft) N-NO 0.00 h 0 W/m -6.1 C -3.3 C 3.9 km/h (1 Bft)
07.01.2009 02:00 -3.3 C 80 % 1018.2 hPa 0.0 l/m 1.5 km/h (1 Bft) NO 0.00 h 0 W/m -6.2 C -3.4 C 3.7 km/h (1 Bft)
07.01.2009 03:00 -3.3 C 80 % 1018.3 hPa 0.0 l/m 1.9 km/h (1 Bft) N-NO 0.00 h 0 W/m -6.2 C -3.5 C 4.7 km/h (1 Bft)
07.01.2009 04:00 -3.3 C 80 % 1018.0 hPa 0.0 l/m 1.5 km/h (1 Bft) N 0.00 h 0 W/m -6.3 C -3.4 C 3.7 km/h (1 Bft)
07.01.2009 05:00 -3.4 C 80 % 1018.1 hPa 0.0 l/m 1.3 km/h (1 Bft) N-NO 0.00 h 0 W/m -6.4 C -3.5 C 3.7 km/h (1 Bft)
07.01.2009 06:00 -3.6 C 79 % 1018.2 hPa 0.0 l/m 1.9 km/h (1 Bft) N-NO 0.00 h 0 W/m -6.7 C -3.7 C 5.0 km/h (1 Bft)
07.01.2009 07:00 -3.7 C 79 % 1018.5 hPa 0.0 l/m 1.5 km/h (1 Bft) N-NO 0.00 h 0 W/m -6.8 C -3.9 C 4.1 km/h (1 Bft)
07.01.2009 08:00 -3.8 C 80 % 1018.9 hPa 0.0 l/m 3.4 km/h (1 Bft) N-NO 0.00 h 6 W/m -6.7 C -4.5 C 7.4 km/h (2 Bft)
07.01.2009 09:00 -4.0 C 80 % 1019.3 hPa 0.0 l/m 4.3 km/h (1 Bft) N-NO 0.00 h 18 W/m -6.9 C -5.1 C 8.8 km/h (2 Bft)
07.01.2009 10:00 -4.1 C 79 % 1019.8 hPa 0.0 l/m 4.6 km/h (1 Bft) N-NO 0.00 h 36 W/m -7.1 C -5.6 C 9.2 km/h (2 Bft)
07.01.2009 11:00 -3.9 C 79 % 1020.0 hPa 0.0 l/m 2.7 km/h (1 Bft) NO 0.00 h 57 W/m -7.1 C -4.3 C 6.5 km/h (2 Bft)
07.01.2009 12:00 -3.7 C 77 % 1019.8 hPa 0.0 l/m 3.6 km/h (1 Bft) O 0.00 h 64 W/m -7.2 C -4.5 C 7.7 km/h (2 Bft)
07.01.2009 13:00 -3.7 C 77 % 1019.3 hPa 0.0 l/m 4.1 km/h (1 Bft) O-SO 0.00 h 87 W/m -7.2 C -4.9 C 8.4 km/h (2 Bft)
07.01.2009 14:00 -3.5 C 75 % 1019.2 hPa 0.0 l/m 4.8 km/h (1 Bft) O-SO 0.00 h 82 W/m -7.2 C -5.0 C 9.2 km/h (2 Bft)
07.01.2009 15:00 -3.6 C 75 % 1019.3 hPa 0.0 l/m 4.4 km/h (1 Bft) O-SO 0.03 h 69 W/m -7.4 C -5.0 C 8.4 km/h (2 Bft)
07.01.2009 16:00 -3.8 C 75 % 1019.9 hPa 0.0 l/m 4.9 km/h (1 Bft) O-SO 0.00 h 16 W/m -7.5 C -5.4 C 8.3 km/h (2 Bft)
07.01.2009 17:00 -4.0 C 75 % 1020.5 hPa 0.0 l/m 3.5 km/h (1 Bft) O 0.00 h 0 W/m -7.7 C -4.8 C 7.2 km/h (2 Bft)
07.01.2009 18:00 -4.2 C 75 % 1021.2 hPa 0.0 l/m 1.5 km/h (1 Bft) O-SO 0.00 h 0 W/m -7.9 C -4.3 C 3.7 km/h (1 Bft)
07.01.2009 19:00 -4.7 C 76 % 1022.1 hPa 0.0 l/m 1.6 km/h (1 Bft) O 0.00 h 0 W/m -8.2 C -4.8 C 3.8 km/h (1 Bft)
07.01.2009 20:00 -5.3 C 77 % 1022.7 hPa 0.0 l/m 5.2 km/h (1 Bft) N 0.00 h 0 W/m -8.8 C -7.2 C 9.7 km/h (2 Bft)
07.01.2009 21:00 -6.3 C 76 % 1023.3 hPa 0.0 l/m 3.7 km/h (1 Bft) N-NW 0.00 h 0 W/m -9.8 C -7.4 C 7.2 km/h (2 Bft)
07.01.2009 22:00 -6.8 C 76 % 1023.5 hPa 0.0 l/m 3.4 km/h (1 Bft) N-NO 0.00 h 0 W/m -10.4 C -7.7 C 7.6 km/h (2 Bft)
07.01.2009 23:00 -7.1 C 75 % 1024.0 hPa 0.0 l/m 1.8 km/h (1 Bft) O 0.00 h 0 W/m -10.8 C -7.3 C 4.6 km/h (1 Bft)
08.01.2009 00:00 -7.2 C 75 % 1023.8 hPa 0.0 l/m 1.1 km/h (1 Bft) O 0.00 h 0 W/m -10.8 C -7.2 C 3.0 km/h (1 Bft)
08.01.2009 01:00 -6.7 C 81 % 1023.6 hPa 0.0 l/m 1.4 km/h (1 Bft) NO 0.00 h 0 W/m -9.5 C -6.8 C 3.8 km/h (1 Bft)
08.01.2009 02:00 -6.1 C 82 % 1023.8 hPa 0.0 l/m 1.8 km/h (1 Bft) O-SO 0.00 h 0 W/m -8.6 C -6.5 C 4.2 km/h (1 Bft)
08.01.2009 03:00 -4.1 C 81 % 1023.7 hPa 0.0 l/m 5.1 km/h (1 Bft) N-NO 0.00 h 0 W/m -6.9 C -5.9 C 11.0 km/h (2 Bft)
08.01.2009 04:00 -3.9 C 76 % 1023.8 hPa 0.0 l/m 4.9 km/h (1 Bft) NO 0.00 h 0 W/m -7.4 C -5.5 C 10.6 km/h (2 Bft)
08.01.2009 05:00 -4.5 C 75 % 1024.2 hPa 0.0 l/m 2.7 km/h (1 Bft) O 0.00 h 0 W/m -8.3 C -5.1 C 6.4 km/h (2 Bft)
08.01.2009 06:00 -5.1 C 75 % 1024.5 hPa 0.0 l/m 3.1 km/h (1 Bft) N 0.00 h 0 W/m -8.8 C -5.8 C 7.0 km/h (2 Bft)
08.01.2009 07:00 -5.3 C 76 % 1025.1 hPa 0.0 l/m 3.2 km/h (1 Bft) O-SO 0.00 h 0 W/m -8.9 C -6.2 C 7.2 km/h (2 Bft)
08.01.2009 08:00 -5.1 C 74 % 1025.6 hPa 0.0 l/m 6.8 km/h (2 Bft) O-SO 0.02 h 12 W/m -8.9 C -8.0 C 13.9 km/h (3 Bft)
08.01.2009 09:00 -5.1 C 73 % 1026.2 hPa 0.0 l/m 5.5 km/h (1 Bft) O 0.00 h 54 W/m -9.2 C -7.0 C 12.1 km/h (2 Bft)
08.01.2009 10:00 -4.7 C 72 % 1026.7 hPa 0.0 l/m 4.2 km/h (1 Bft) O-SO 0.00 h 76 W/m -9.0 C -5.9 C 8.7 km/h (2 Bft)
08.01.2009 11:00 -4.4 C 72 % 1026.4 hPa 0.0 l/m 7.0 km/h (2 Bft) O 0.00 h 115 W/m -8.8 C -7.2 C 14.4 km/h (3 Bft)
08.01.2009 12:00 -4.2 C 72 % 1026.2 hPa 0.0 l/m 5.7 km/h (1 Bft) O 0.00 h 112 W/m -8.6 C -6.2 C 11.9 km/h (2 Bft)
08.01.2009 13:00 -3.9 C 71 % 1026.0 hPa 0.0 l/m 4.3 km/h (1 Bft) NO 0.00 h 97 W/m -8.2 C -5.1 C 9.7 km/h (2 Bft)
08.01.2009 14:00 -3.6 C 71 % 1025.8 hPa 0.0 l/m 3.9 km/h (1 Bft) N 0.00 h 78 W/m -8.0 C -4.6 C 8.4 km/h (2 Bft)
08.01.2009 15:00 -3.4 C 72 % 1025.9 hPa 0.0 l/m 2.3 km/h (1 Bft) O-SO 0.00 h 43 W/m -7.8 C -3.8 C 5.6 km/h (1 Bft)
08.01.2009 16:00 -3.4 C 72 % 1026.4 hPa 0.0 l/m 1.1 km/h (1 Bft) O 0.00 h 13 W/m -7.7 C -3.5 C 2.8 km/h (1 Bft)
08.01.2009 17:00 -3.5 C 73 % 1026.9 hPa 0.0 l/m 1.0 km/h (0 Bft) O 0.00 h 0 W/m -7.7 C -3.5 C 2.8 km/h (1 Bft)
08.01.2009 18:00 -3.7 C 73 % 1027.5 hPa 0.0 l/m 1.8 km/h (1 Bft) O-SO 0.00 h 0 W/m -7.8 C -3.8 C 4.3 km/h (1 Bft)
08.01.2009 19:00 -4.6 C 75 % 1028.1 hPa 0.0 l/m 1.5 km/h (1 Bft) O-SO 0.00 h 0 W/m -8.2 C -4.6 C 3.0 km/h (1 Bft)
08.01.2009 20:00 -5.3 C 79 % 1028.6 hPa 0.0 l/m 2.6 km/h (1 Bft) O-SO 0.00 h 0 W/m -8.4 C -5.4 C 3.7 km/h (1 Bft)
08.01.2009 21:00 -5.4 C 80 % 1028.9 hPa 0.0 l/m 2.1 km/h (1 Bft) O-SO 0.00 h 0 W/m -8.3 C -5.6 C 3.5 km/h (1 Bft)
08.01.2009 22:00 -5.4 C 79 % 1028.9 hPa 0.0 l/m 0.3 km/h (0 Bft) O-SO 0.00 h 0 W/m -8.4 C -5.4 C 0.9 km/h (0 Bft)
08.01.2009 23:00 -5.4 C 81 % 1029.2 hPa 0.0 l/m 0.5 km/h (0 Bft) S 0.00 h 0 W/m -8.2 C -5.4 C 1.4 km/h (1 Bft)
09.01.2009 00:00 -5.5 C 83 % 1029.3 hPa 0.0 l/m 0.3 km/h (0 Bft) W-SW 0.00 h 0 W/m -8.0 C -5.5 C 1.2 km/h (1 Bft)
09.01.2009 01:00 -5.3 C 83 % 1029.2 hPa 0.0 l/m 0.2 km/h (0 Bft) W-SW 0.00 h 0 W/m -7.8 C -5.3 C 0.6 km/h (0 Bft)
09.01.2009 02:00 -5.3 C 82 % 1029.2 hPa 0.0 l/m 0.1 km/h (0 Bft) W-NW 0.00 h 0 W/m -7.9 C -5.3 C 0.8 km/h (0 Bft)
09.01.2009 03:00 -5.3 C 82 % 1029.0 hPa 0.0 l/m 0.0 km/h (0 Bft) N 0.00 h 0 W/m -7.9 C -5.3 C 0.1 km/h (0 Bft)
09.01.2009 04:00 -5.3 C 83 % 1028.9 hPa 0.0 l/m 0.1 km/h (0 Bft) W-NW 0.00 h 0 W/m -7.8 C -5.3 C 0.3 km/h (0 Bft)
09.01.2009 05:00 -5.3 C 81 % 1028.8 hPa 0.0 l/m 4.3 km/h (1 Bft) O-SO 0.00 h 0 W/m -8.1 C -6.8 C 6.4 km/h (2 Bft)
09.01.2009 06:00 -5.1 C 82 % 1028.9 hPa 0.0 l/m 3.2 km/h (1 Bft) O-SO 0.00 h 0 W/m -7.8 C -5.8 C 5.1 km/h (1 Bft)
09.01.2009 07:00 -5.0 C 83 % 1029.3 hPa 0.0 l/m 1.4 km/h (1 Bft) O-SO 0.00 h 0 W/m -7.4 C -5.1 C 2.8 km/h (1 Bft)
09.01.2009 08:00 -5.0 C 84 % 1029.9 hPa 0.0 l/m 1.4 km/h (1 Bft) O 0.00 h 10 W/m -7.3 C -5.0 C 3.4 km/h (1 Bft)
09.01.2009 09:00 -4.7 C 84 % 1030.2 hPa 0.0 l/m 1.1 km/h (1 Bft) O-NO 0.00 h 31 W/m -7.0 C -4.7 C 3.3 km/h (1 Bft)
09.01.2009 10:00 -4.4 C 85 % 1030.5 hPa 0.0 l/m 1.2 km/h (1 Bft) O 0.00 h 59 W/m -6.6 C -4.5 C 3.4 km/h (1 Bft)
09.01.2009 11:00 -4.1 C 84 % 1030.3 hPa 0.0 l/m 1.8 km/h (1 Bft) O-SO 0.00 h 89 W/m -6.4 C -4.2 C 3.9 km/h (1 Bft)
09.01.2009 12:00 -3.8 C 83 % 1029.7 hPa 0.0 l/m 2.3 km/h (1 Bft) O-SO 0.00 h 107 W/m -6.2 C -4.2 C 4.6 km/h (1 Bft)
09.01.2009 13:00 -3.6 C 83 % 1029.2 hPa 0.0 l/m 1.8 km/h (1 Bft) O-SO 0.00 h 104 W/m -6.1 C -3.7 C 4.1 km/h (1 Bft)
09.01.2009 14:00 -3.5 C 83 % 1028.8 hPa 0.0 l/m 2.4 km/h (1 Bft) O-SO 0.00 h 82 W/m -6.0 C -3.7 C 4.8 km/h (1 Bft)
09.01.2009 15:00 -3.6 C 83 % 1028.7 hPa 0.0 l/m 2.7 km/h (1 Bft) O-SO 0.00 h 45 W/m -6.1 C -4.0 C 5.0 km/h (1 Bft)
09.01.2009 16:00 -4.1 C 83 % 1028.8 hPa 0.0 l/m 2.0 km/h (1 Bft) O 0.00 h 14 W/m -6.5 C -4.3 C 4.4 km/h (1 Bft)
09.01.2009 17:00 -4.5 C 85 % 1029.0 hPa 0.0 l/m 3.6 km/h (1 Bft) O-SO 0.00 h 0 W/m -6.6 C -5.5 C 5.9 km/h (2 Bft)
09.01.2009 18:00 -4.9 C 86 % 1029.3 hPa 0.0 l/m 3.8 km/h (1 Bft) O-SO 0.00 h 0 W/m -6.8 C -6.0 C 6.4 km/h (2 Bft)
09.01.2009 19:00 -5.2 C 87 % 1029.4 hPa 0.0 l/m 2.3 km/h (1 Bft) O-SO 0.00 h 0 W/m -7.0 C -5.8 C 4.5 km/h (1 Bft)
09.01.2009 20:00 -5.2 C 88 % 1029.7 hPa 0.0 l/m 0.8 km/h (0 Bft) O-SO 0.00 h 0 W/m -6.9 C -5.2 C 2.7 km/h (1 Bft)
09.01.2009 21:00 -5.2 C 89 % 1029.8 hPa 0.0 l/m 1.1 km/h (1 Bft) NO 0.00 h 0 W/m -6.7 C -5.4 C 3.5 km/h (1 Bft)
09.01.2009 22:00 -5.3 C 89 % 1030.0 hPa 0.0 l/m 1.8 km/h (1 Bft) O-SO 0.00 h 0 W/m -6.8 C -5.7 C 4.0 km/h (1 Bft)
09.01.2009 23:00 -5.3 C 90 % 1029.9 hPa 0.0 l/m 0.5 km/h (0 Bft) O-NO 0.00 h 0 W/m -6.7 C -5.4 C 2.2 km/h (1 Bft)
10.01.2009 00:00 -5.3 C 89 % 1029.8 hPa 0.0 l/m 0.7 km/h (0 Bft) NO 0.00 h 0 W/m -6.8 C -5.4 C 2.5 km/h (1 Bft)
10.01.2009 01:00 -5.3 C 90 % 1029.3 hPa 0.0 l/m 0.7 km/h (0 Bft) NO 0.00 h 0 W/m -6.7 C -5.3 C 2.7 km/h (1 Bft)
10.01.2009 02:00 -5.3 C 90 % 1029.2 hPa 0.0 l/m 0.2 km/h (0 Bft) N-NO 0.00 h 0 W/m -6.7 C -5.3 C 0.9 km/h (0 Bft)
10.01.2009 03:00 -5.2 C 90 % 1029.2 hPa 0.0 l/m 0.1 km/h (0 Bft) N-NO 0.00 h 0 W/m -6.5 C -5.2 C 0.4 km/h (0 Bft)
10.01.2009 04:00 -5.2 C 90 % 1028.9 hPa 0.0 l/m 0.7 km/h (0 Bft) O 0.00 h 0 W/m -6.6 C -5.2 C 2.0 km/h (1 Bft)
10.01.2009 05:00 -5.3 C 90 % 1028.9 hPa 0.0 l/m 0.7 km/h (0 Bft) N-NO 0.00 h 0 W/m -6.7 C -5.3 C 2.5 km/h (1 Bft)
10.01.2009 06:00 -5.4 C 90 % 1028.9 hPa 0.0 l/m 0.7 km/h (0 Bft) N-NO 0.00 h 0 W/m -6.8 C -5.4 C 2.2 km/h (1 Bft)
10.01.2009 07:00 -5.6 C 89 % 1029.4 hPa 0.0 l/m 1.2 km/h (1 Bft) N 0.00 h 0 W/m -7.1 C -5.6 C 3.2 km/h (1 Bft)
10.01.2009 08:00 -5.7 C 89 % 1029.7 hPa 0.0 l/m 1.2 km/h (1 Bft) N-NO 0.00 h 10 W/m -7.3 C -5.8 C 3.1 km/h (1 Bft)
10.01.2009 09:00 -5.6 C 88 % 1030.2 hPa 0.0 l/m 0.9 km/h (0 Bft) N 0.00 h 36 W/m -7.2 C -5.6 C 2.7 km/h (1 Bft)
10.01.2009 10:00 -5.1 C 87 % 1030.5 hPa 0.0 l/m 0.5 km/h (0 Bft) O-SO 0.00 h 81 W/m -6.9 C -5.1 C 2.0 km/h (1 Bft)
10.01.2009 11:00 -4.6 C 85 % 1030.4 hPa 0.0 l/m 1.9 km/h (1 Bft) SW 0.00 h 99 W/m -6.7 C -4.8 C 3.9 km/h (1 Bft)
10.01.2009 12:00 -4.3 C 85 % 1029.9 hPa 0.0 l/m 1.7 km/h (1 Bft) W-NW 0.00 h 126 W/m -6.5 C -4.5 C 3.6 km/h (1 Bft)
10.01.2009 13:00 -3.8 C 84 % 1029.7 hPa 0.0 l/m 2.0 km/h (1 Bft) SO 0.00 h 125 W/m -6.1 C -4.2 C 4.2 km/h (1 Bft)
10.01.2009 14:00 -3.5 C 83 % 1029.6 hPa 0.0 l/m 2.4 km/h (1 Bft) O-SO 0.00 h 88 W/m -5.9 C -3.8 C 4.3 km/h (1 Bft)
10.01.2009 15:00 -3.5 C 83 % 1030.0 hPa 0.0 l/m 3.1 km/h (1 Bft) O-SO 0.00 h 42 W/m -5.9 C -4.1 C 5.1 km/h (1 Bft)
10.01.2009 16:00 -3.7 C 84 % 1030.6 hPa 0.0 l/m 1.0 km/h (0 Bft) SO 0.00 h 13 W/m -6.0 C -3.8 C 2.5 km/h (1 Bft)
10.01.2009 17:00 -3.9 C 85 % 1031.1 hPa 0.0 l/m 1.1 km/h (1 Bft) SW 0.00 h 0 W/m -6.1 C -4.0 C 2.8 km/h (1 Bft)
10.01.2009 18:00 -4.1 C 85 % 1031.5 hPa 0.0 l/m 0.8 km/h (0 Bft) S 0.00 h 0 W/m -6.2 C -4.1 C 2.5 km/h (1 Bft)
10.01.2009 19:00 -4.3 C 86 % 1031.8 hPa 0.0 l/m 0.3 km/h (0 Bft) S 0.00 h 0 W/m -6.3 C -4.3 C 1.6 km/h (1 Bft)
10.01.2009 20:00 -4.4 C 86 % 1032.1 hPa 0.0 l/m 0.5 km/h (0 Bft) O-SO 0.00 h 0 W/m -6.3 C -4.4 C 1.4 km/h (1 Bft)
10.01.2009 21:00 -4.8 C 87 % 1032.4 hPa 0.0 l/m 0.6 km/h (0 Bft) O-NO 0.00 h 0 W/m -6.5 C -4.8 C 2.1 km/h (1 Bft)
10.01.2009 22:00 -5.1 C 88 % 1032.8 hPa 0.0 l/m 2.0 km/h (1 Bft) SO 0.00 h 0 W/m -6.8 C -5.3 C 3.7 km/h (1 Bft)
10.01.2009 23:00 -5.5 C 88 % 1033.2 hPa 0.0 l/m 3.5 km/h (1 Bft) SO 0.00 h 0 W/m -7.1 C -6.5 C 6.0 km/h (2 Bft)
11.01.2009 00:00 -5.9 C 88 % 1033.2 hPa 0.0 l/m 1.8 km/h (1 Bft) SO 0.00 h 0 W/m -7.5 C -6.4 C 3.4 km/h (1 Bft)
11.01.2009 01:00 -5.8 C 90 % 1033.2 hPa 0.0 l/m 1.8 km/h (1 Bft) O-SO 0.00 h 0 W/m -7.3 C -6.0 C 3.5 km/h (1 Bft)
11.01.2009 02:00 -5.5 C 90 % 1033.4 hPa 0.0 l/m 2.1 km/h (1 Bft) SW 0.00 h 0 W/m -6.9 C -5.9 C 4.2 km/h (1 Bft)
11.01.2009 03:00 -5.5 C 91 % 1034.0 hPa 0.0 l/m 0.9 km/h (0 Bft) SO 0.00 h 0 W/m -6.7 C -5.5 C 2.5 km/h (1 Bft)
11.01.2009 04:00 -5.6 C 91 % 1034.6 hPa 0.0 l/m 1.0 km/h (0 Bft) SO 0.00 h 0 W/m -6.9 C -5.7 C 2.4 km/h (1 Bft)
11.01.2009 05:00 -5.7 C 91 % 1034.7 hPa 0.0 l/m 1.1 km/h (1 Bft) S-SO 0.00 h 0 W/m -7.0 C -5.9 C 2.8 km/h (1 Bft)
11.01.2009 06:00 -6.0 C 91 % 1035.2 hPa 0.0 l/m 2.2 km/h (1 Bft) S 0.00 h 0 W/m -7.2 C -6.2 C 4.4 km/h (1 Bft)
11.01.2009 07:00 -6.1 C 91 % 1035.5 hPa 0.0 l/m 0.2 km/h (0 Bft) O 0.00 h 0 W/m -7.3 C -6.1 C 1.3 km/h (1 Bft)
11.01.2009 08:00 -6.1 C 90 % 1035.7 hPa 0.0 l/m 1.2 km/h (1 Bft) O-SO 0.00 h 11 W/m -7.5 C -6.3 C 2.7 km/h (1 Bft)
11.01.2009 09:00 -6.3 C 90 % 1036.0 hPa 0.0 l/m 0.7 km/h (0 Bft) O 0.00 h 36 W/m -7.6 C -6.3 C 2.3 km/h (1 Bft)
11.01.2009 10:00 -6.0 C 90 % 1036.1 hPa 0.0 l/m 1.5 km/h (1 Bft) O-SO 0.00 h 77 W/m -7.4 C -6.2 C 3.2 km/h (1 Bft)
11.01.2009 11:00 -5.4 C 88 % 1036.0 hPa 0.0 l/m 1.0 km/h (0 Bft) O-SO 0.00 h 100 W/m -7.1 C -5.4 C 2.4 km/h (1 Bft)
11.01.2009 12:00 -5.2 C 87 % 1035.4 hPa 0.0 l/m 1.7 km/h (1 Bft) O-SO 0.00 h 118 W/m -6.9 C -5.3 C 3.5 km/h (1 Bft)
11.01.2009 13:00 -4.9 C 87 % 1034.8 hPa 0.0 l/m 1.9 km/h (1 Bft) S 0.00 h 122 W/m -6.6 C -5.0 C 3.9 km/h (1 Bft)
11.01.2009 14:00 -4.6 C 87 % 1034.2 hPa 0.0 l/m 1.4 km/h (1 Bft) SO 0.00 h 87 W/m -6.4 C -4.7 C 3.1 km/h (1 Bft)
11.01.2009 15:00 -4.3 C 87 % 1034.3 hPa 0.0 l/m 1.8 km/h (1 Bft) S-SW 0.00 h 50 W/m -6.2 C -4.5 C 3.8 km/h (1 Bft)
11.01.2009 16:00 -4.3 C 87 % 1034.8 hPa 0.0 l/m 0.9 km/h (0 Bft) S 0.00 h 16 W/m -6.1 C -4.3 C 2.4 km/h (1 Bft)
11.01.2009 17:00 -4.7 C 87 % 1034.8 hPa 0.0 l/m 1.4 km/h (1 Bft) O-SO 0.00 h 0 W/m -6.5 C -4.8 C 3.4 km/h (1 Bft)
11.01.2009 18:00 -5.3 C 88 % 1034.9 hPa 0.0 l/m 1.4 km/h (1 Bft) O-SO 0.00 h 0 W/m -7.0 C -5.4 C 3.3 km/h (1 Bft)
11.01.2009 19:00 -5.6 C 89 % 1035.1 hPa 0.0 l/m 0.9 km/h (0 Bft) O 0.00 h 0 W/m -7.1 C -5.7 C 2.5 km/h (1 Bft)
11.01.2009 20:00 -5.8 C 90 % 1035.3 hPa 0.0 l/m 0.4 km/h (0 Bft) O 0.00 h 0 W/m -7.1 C -5.8 C 1.8 km/h (1 Bft)
11.01.2009 21:00 -5.9 C 90 % 1035.4 hPa 0.0 l/m 0.9 km/h (0 Bft) O 0.00 h 0 W/m -7.3 C -5.9 C 2.7 km/h (1 Bft)
11.01.2009 22:00 -6.2 C 90 % 1035.2 hPa 0.0 l/m 1.8 km/h (1 Bft) O 0.00 h 0 W/m -7.6 C -6.3 C 3.9 km/h (1 Bft)
11.01.2009 23:00 -6.5 C 90 % 1034.9 hPa 0.0 l/m 2.0 km/h (1 Bft) O 0.00 h 0 W/m -7.9 C -6.6 C 4.5 km/h (1 Bft)
Min-Datum _ 08.01.09 08.01.09 06.01.09 - 05.01.09 - - - 08.01.09 08.01.09 05.01.09
_ Min-Zeit 00:23 10:42 13:15 - 00:00 - - - 00:23 08:59 05:52
Minimum _ -7.3 C 71 % 1016.0 hPa - 0.0 km/h (0 Bft) - - - -11.1 C -11.0 C 0.0 km/h (0 Bft)
Max-Datum _ 06.01.09 06.01.09 11.01.09 06.01.09 07.01.09 - 05.01.09 05.01.09 06.01.09 06.01.09 08.01.09
_ Max-Zeit 14:34 06:29 10:30 10:28 11:26 - 11:19 11:36 11:02 14:34 11:23
Maximum _ -1.9 C 92 % 1036.3 hPa 0.2 l/m 15.6 km/h
NO (3 Bft)
- 0.02 h 244 W/m -4.8 C -1.9 C 38.2 km/h
O-SO (5 Bft)
Durchschnitt _ -4.5 C 83 % 1025.1 hPa #0.2 l/m 1.9 km/h (1 Bft) O-SO #1:42 h 62 W/m -6.9 C -4.8 C 4.2 km/h (1 Bft)
© Kaiko 2009